Tiempo atmosférico en la estación meteorológica de Manresa, Barcelona (291 m.)



Fecha
DESCASC
Temp. máxima en grados centígrados (hora)
DESCASC
Temp. mínima en grados centígrados (hora)
DESCASC
Temp. media en grados centígrados
DESCASC
Racha de viento máxima en m/sg (hora)
DESCASC
Velocidad máxima media en intervalos de 10 minutos(hora)
DESCASC
Precipitaciones diarias en mm
DESCASC
Precipitaciones de 00:00 a 06:00 en mm
DESCASC
Precipitaciones de 06:00 a 12:00 en mm
DESCASC
Precipitaciones de 12:00 a 18:00 en mm
DESCASC
Precipitaciones de 18:00 a 24:00 en mm
DESCASC
17-02-2019 16.6 (16:20) -3 (08:30) 6.8 7.22 (17:40) 3.89 (14:40) 0 0 0 0 0
16-02-2019 19.4 (15:50) -3 (08:00) 8.2 6.39 (18:40) 3.61 (18:40) 0 0 0 0 0
15-02-2019 17.4 (15:10) -2.4 (06:40) 7.5 5 (17:20) 2.78 (17:20) 0 0 0 0 0
14-02-2019 16.6 (15:50) -1.7 (-00:0) 7.5 6.67 (16:40) 3.33 (17:00) 0 0 0 0 0
13-02-2019 15.9 (15:50) -2.3 (-00:0) 6.8 7.5 (17:00) 3.89 (14:20) 0 0 0 0 0
12-02-2019 15.1 (15:50) -0.9 (-00:0) 7.1 7.5 (16:30) 3.89 (16:50) 0 0 0 0 0
11-02-2019 15.2 (16:40) 3.5 (00:00) 9.3 5.28 (15:50) 2.78 (16:10) 0 0 0 0 0
10-02-2019 16.2 (16:30) 0.2 (00:00) 8.2 12.22 (18:10) 6.67 (18:20) 0 0 0 0 0
09-02-2019 17.3 (15:50) 0.7 (00:00) 9 5.56 (16:10) 3.06 (16:00) 0 0 0 0 0
08-02-2019 16.3 (16:40) 1 (00:00) 8.6 5.56 (16:50) 3.33 (17:00) 0.4 0 0 0.4 0
07-02-2019 16 (15:50) 0.5 (00:00) 8.3 4.72 (17:10) 2.78 (17:10) 0 0 0 0 0
06-02-2019 17.4 (16:30) 2.3 (00:00) 9.8 4.17 (09:40) 2.78 (09:40) 0 0 0 0 0
05-02-2019 16.8 (15:40) 0.3 (00:00) 8.5 5.56 (16:30) 3.06 (16:20) 0 0 0 0 0
04-02-2019 12 (16:50) -4.3 (-00:0) 3.8 6.11 (08:00) 3.61 (07:50) 0 0 0 0 0
03-02-2019 11.5 (13:30) -4 (-00:0) 3.8 12.78 (15:10) 7.22 (15:10) 0 0 0 0 0
02-02-2019 12.2 (16:40) 3.4 (00:00) 7.8 14.17 (16:30) 6.67 (16:50) 0 0 0 0 0
01-02-2019 14.5 (14:30) 5.9 (00:00) 10.2 13.33 (14:30) 6.11 (14:30) 0.2 0 0.2 0 0
31-01-2019 14.2 (16:00) 1.6 (00:00) 7.9 9.17 (16:10) 4.72 (16:20) 0 0 0 0 0
30-01-2019 11.1 (16:00) 2.9 (00:00) 7 10.56 (16:30) 6.11 (13:30) 0 0 0 0 0
29-01-2019 6.2 (23:40) -1.4 (-00:0) 2.4 6.94 (23:59) 3.06 (23:40) 0 0 0 0 0
28-01-2019 12.7 (15:50) -0.8 (-00:0) 5.9 12.22 (14:30) 5.83 (14:30) 0 0 0 0 0
27-01-2019 14.2 (16:20) 0.1 (00:00) 7.1 13.33 (20:20) 6.67 (19:00) 0 0 0 0 0
26-01-2019 14 (16:00) 0.5 (00:00) 7.3 7.78 (16:20) 4.17 (16:20) 0 0 0 0 0
25-01-2019 15.7 (16:40) -4 (-00:0) 5.8 6.11 (18:10) 3.06 (18:30) 0 0 0 0 0
24-01-2019 11.9 (15:30) -1.5 (-00:0) 5.2 10.56 (06:30) 4.17 (16:40) 0 0 0 0 0
23-01-2019 7.8 (16:20) -0.5 (-00:0) 3.7 8.89 (19:10) 4.44 (21:50) 1.4 0 1.4 0 0
22-01-2019 6.6 (16:10) -3.9 (-00:0) 1.3 5.56 (19:20) 2.78 (23:30) 0 0 0 0 0
21-01-2019 9.1 (14:20) -1.1 (-00:0) 4 7.5 (15:50) 4.72 (15:20) 0 0 0 0 0
20-01-2019 9.5 (17:10) 1.7 (00:00) 5.6 5 (18:20) 2.5 (18:50) 7.8 1.6 6.2 0 0
19-01-2019 9.7 (16:30) -2.8 (-00:0) 3.4 4.72 (16:50) 2.22 (16:40) 0 0 0 0 0

Gráficas

Temp. máximas Temp. mínimas Temp. medias Precipitaciones Rachas de viento máximas Velocidades máximas media en intervalos de 10 minutos

Datos horarios

Fecha y hora oficial Temperatura (ºC) Velocidad del viento (km/h) Dirección del viento Racha (km/h) Dirección de racha Precipitación (mm) Presión (hPa) Tendencia (hPa) Humedad (%)
2019-02-17 23:00:00 5.7 3 Nordeste 6 Nordeste 0 990.7 1.1 88
2019-02-17 22:00:00 7.8 4 Sur 13 Sudeste 0 990.4 1.3 85
2019-02-17 21:00:00 8.5 5 Sudoeste 13 Sudoeste 0 990 1.1 80
2019-02-17 20:00:00 9.7 8 Sur 20 Sur 0 989.6 0.6 71
2019-02-17 19:00:00 11.4 12 Sur 25 Sur 0 989.1 -0.2 62
2019-02-17 18:00:00 13.5 13 Sur 26 Sur 0 988.9 -0.8 54
2019-02-17 17:00:00 15.6 12 Sur 24 Sudoeste 0 989 -1.5 36
2019-02-17 16:00:00 16.4 12 Sur 23 Sudoeste 0 989.3 -2.3 25
2019-02-17 15:00:00 16 13 Sur 25 Sur 0 989.7 -3 28
2019-02-17 14:00:00 15.2 11 Sur 19 Sudoeste 0 990.5 -2.7 29
2019-02-17 13:00:00 12 4 Oeste 7 Oeste 0 991.6 -2.1 31
2019-02-17 12:00:00 8 3 Nordeste 8 Nordeste 0 992.7 -1.2 43
2019-02-17 11:00:00 4.6 3 Nordeste 6 Nordeste 0 993.2 -0.4 53
2019-02-17 10:00:00 1.2 3 Nordeste 7 Nordeste 0 993.7 0.2 68
2019-02-17 09:00:00 -1.9 4 Nordeste 6 Norte 0 993.9 0.4 83
2019-02-17 08:00:00 -2.9 4 Nordeste 5 Nordeste 0 993.6 0.3 86
2019-02-17 07:00:00 -2.6 3 Norte 6 Norte 0 993.5 0.1 86
2019-02-17 06:00:00 -2.2 4 Nordeste 6 Nordeste 0 993.5 -0.2 85
2019-02-17 05:00:00 -1.6 3 Oeste 5 Oeste 0 993.3 -0.8 80
2019-02-17 04:00:00 -1.2 3 Norte 5 Norte 0 993.4 -0.9 79
2019-02-17 03:00:00 -0.2 2 Nordeste 6 Nordeste 0 993.7 -0.6 76
2019-02-17 02:00:00 0.7 3 Norte 7 Norte 0 994.1 -0.3 73
2019-02-17 01:00:00 1.5 3 Nordeste 5 Nordeste 0 994.3 0.2 69
2019-02-17 00:00:00 3.1 2 Norte 6 Noroeste 0 994.3 0.6 65
2019-02-16 23:00:00 4 2 Norte 5 Nordeste 0 994.4 0.9 61
2019-02-16 22:00:00 5.7 3 Norte 6 Norte 0 994.1 1 63
2019-02-16 21:00:00 7.8 3 Oeste 4 Oeste 0 993.7 0.9 57
2019-02-16 20:00:00 10.4 0 Calma 20 Sudoeste 0 993.5 0.6 51
2019-02-16 19:00:00 13.4 9 Sur 23 Sur 0 993.1 -0.3 40
2019-02-16 18:00:00 16.2 9 Sur 20 Sudoeste 0 992.8 -1.2 31
2019-02-16 17:00:00 18.8 8 Sur 14 Sudoeste 0 992.9 -2 15
2019-02-16 16:00:00 19 5 Sur 13 Sur 0 993.4 -2.4 13
2019-02-16 15:00:00 19.1 5 Sudoeste 9 Sur 0 994 -2.6 16
2019-02-16 14:00:00 16.2 3 Sudoeste 8 Sudoeste 0 994.9 -2 28
2019-02-16 13:00:00 12 3 Nordeste 6 Norte 0 995.8 -1.2 30
2019-02-16 12:00:00 8.7 3 Nordeste 7 Oeste 0 996.6 -0.3 43
2019-02-16 11:00:00 5.2 3 Oeste 7 Norte 0 996.9 0.7 57
2019-02-16 10:00:00 1.6 4 Nordeste 6 Nordeste 0 997 1.2 69
2019-02-16 09:00:00 -1.7 5 Nordeste 8 Nordeste 0 996.9 1.2 82
2019-02-16 08:00:00 -3 2 Norte 6 Norte 0 996.2 0.9 87
2019-02-16 07:00:00 -2.2 5 Nordeste 7 Norte 0 995.8 0.4 84
2019-02-16 06:00:00 -2.3 3 Norte 6 Nordeste 0 995.7 0.2 85
2019-02-16 05:00:00 -1.6 3 Norte 11 Nordeste 0 995.3 -0.4 81
2019-02-16 04:00:00 -1.3 3 Oeste 5 Norte 0 995.4 -0.2 81
2019-02-16 03:00:00 -0.5 4 Nordeste 6 Norte 0 995.5 0.1 78
2019-02-16 02:00:00 0.5 3 Nordeste 8 Nordeste 0 995.7 0.6 73
2019-02-16 01:00:00 1.2 3 Nordeste 5 Norte 0 995.6 0.6 71
2019-02-16 00:00:00 2.6 3 Nordeste 8 Norte 0 995.4 0.9 65
2019-02-15 23:00:00 3.8 4 Nordeste 8 Norte 0 995.1 0.8 61
2019-02-15 22:00:00 5.1 3 Nordeste 8 Nordeste 0 995 1.3 59
2019-02-15 21:00:00 6.8 3 Nordeste 6 Oeste 0 994.5 1.3 49
2019-02-15 20:00:00 9.8 3 Sudoeste 10 Sudoeste 0 994.3 1 52
2019-02-15 19:00:00 12.7 9 Sur 17 Sur 0 993.7 0.1 41
2019-02-15 18:00:00 15.2 8 Sur 18 Sur 0 993.2 -0.8 27
2019-02-15 17:00:00 17 8 Sur 17 Sur 0 993.3 -1.7 16
2019-02-15 16:00:00 17.2 8 Sur 16 Sudoeste 0 993.6 -2.6 17
2019-02-15 15:00:00 17.1 6 Sur 12 Nordeste 0 994 -3.2 22
2019-02-15 14:00:00 14.3 5 Nordeste 10 Nordeste 0 995 -2.4 29
2019-02-15 13:00:00 11.2 2 Sudoeste 8 Noroeste 0 996.2 -1.5 43
2019-02-15 12:00:00 7.3 4 Nordeste 7 Nordeste 0 997.2 -0.5 49
2019-02-15 11:00:00 4.4 3 Oeste 6 Nordeste 0 997.4 0.1 63
2019-02-15 10:00:00 1.5 2 Norte 5 Nordeste 0 997.7 0.8 76
2019-02-15 09:00:00 -1.5 4 Nordeste 6 Este 0 997.7 0.8 91
2019-02-15 08:00:00 -2.4 3 Norte 5 Norte 0 997.3 0.8 92
2019-02-15 07:00:00 -2.3 2 Norte 5 Norte 0 996.9 0.4 92
2019-02-15 06:00:00 -1.9 3 Norte 9 Nordeste 0 996.9 0.2 91
2019-02-15 05:00:00 -1.5 3 Nordeste 7 Nordeste 0 996.5 -0.5 91
2019-02-15 04:00:00 -0.6 5 Nordeste 7 Nordeste 0 996.5 -0.7 90
2019-02-15 03:00:00 -0.2 3 Norte 6 Nordeste 0 996.7 -0.6 87
2019-02-15 02:00:00 0.7 4 Nordeste 8 Norte 0 997 -0.2 84
2019-02-15 01:00:00 1.7 3 Norte 7 Nordeste 0 997.2 0.3 82
2019-02-15 00:00:00 2.4 2 Norte 7 Nordeste 0 997.3 0.6 81
2019-02-14 23:00:00 4 5 Norte 7 Norte 0 997.2 0.6 82
2019-02-14 22:00:00 5.8 3 Nordeste 7 Sur 0 996.9 0.6 81
2019-02-14 21:00:00 7.7 4 Sur 15 Sudoeste 0 996.7 0.6 74
2019-02-14 20:00:00 9.4 8 Sudoeste 22 Sudeste 0 996.6 0.3 69
2019-02-14 19:00:00 11 12 Sur 21 Sur 0 996.3 -0.4 63
2019-02-14 18:00:00 13.5 11 Sur 21 Sudoeste 0 996.1 -1.3 38
2019-02-14 17:00:00 15.1 12 Sur 24 Sur 0 996.3 -2.2 31
2019-02-14 16:00:00 16.3 10 Sur 18 Sudoeste 0 996.7 -2.9 23
2019-02-14 15:00:00 16.1 6 Sur 14 Sudoeste 0 997.4 -3.3 26
2019-02-14 14:00:00 14 3 Sur 9 Sur 0 998.5 -2.7 31
2019-02-14 13:00:00 9.9 2 Oeste 7 Noroeste 0 999.6 -1.9 55
2019-02-14 12:00:00 6.1 3 Norte 8 Nordeste 0 1000.7 -0.8 66
2019-02-14 11:00:00 2.6 4 Oeste 8 Oeste 0 1001.2 0.1 82
2019-02-14 10:00:00 -0.7 4 Nordeste 8 Nordeste 0 1001.5 0.6 95
2019-02-14 09:00:00 -1.6 4 Nordeste 7 Nordeste 0 1001.5 0.6 96
2019-02-14 08:00:00 -0.9 3 Nordeste 8 Nordeste 0 1001.1 0.7 97
2019-02-14 07:00:00 -1.7 5 Nordeste 12 Nordeste 0 1000.9 0.7 95
2019-02-14 06:00:00 -0.8 6 Nordeste 11 Nordeste 0 1000.9 0.6 90
2019-02-14 05:00:00 -0.5 4 Norte 7 Nordeste 0 1000.4 0.3 93
2019-02-14 04:00:00 -0.5 2 Nordeste 5 Norte 0 1000.2 0.5 93
2019-02-14 03:00:00 0 0 Calma 5 Norte 0 1000.3 1 92
2019-02-14 02:00:00 1 2 Norte 8 Nordeste 0 1000.1 1.2 91
2019-02-14 01:00:00 1.9 5 Nordeste 8 Nordeste 0 999.7 1.2 90
2019-02-14 00:00:00 2.7 3 Nordeste 5 Nordeste 0 999.3 1.3 87
2019-02-13 23:00:00 4.1 0 Calma 4 Nordeste 0 998.9 1.1 84
2019-02-13 22:00:00 5.9 2 Oeste 5 Noroeste 0 998.5 1.4 85
2019-02-13 21:00:00 7.4 2 Sudoeste 8 Sur 0 998 1.4 80
2019-02-13 20:00:00 9.3 4 Sudoeste 15 Sur 0 997.8 1.3 70
2019-02-13 19:00:00 11 8 Sur 22 Sur 0 997.1 0.8 61
2019-02-13 18:00:00 13 12 Sur 25 Sudoeste 0 996.6 0.1 52
2019-02-13 17:00:00 14.4 14 Sur 27 Sur 0 996.5 -0.5 49
2019-02-13 16:00:00 15.7 12 Sur 23 Sudoeste 0 996.3 -1.5 37
2019-02-13 15:00:00 15.3 11 Sur 23 Sudoeste 0 996.5 -1.7 35
2019-02-13 14:00:00 14.6 11 Sur 20 Sur 0 997 -1.3 40
2019-02-13 13:00:00 11.9 6 Sudoeste 12 Sur 0 997.8 -0.5 48
2019-02-13 12:00:00 8.5 3 Sudoeste 9 Sudoeste 0 998.2 -0.1 54
2019-02-13 11:00:00 5.2 3 Sudoeste 6 Norte 0 998.3 0.9 66
2019-02-13 10:00:00 1.6 0 Calma 8 Oeste 0 998.3 1.4 79
2019-02-13 09:00:00 -1.7 2 Oeste 9 Nordeste 0 998.3 1.7 91
2019-02-13 08:00:00 -2 6 Nordeste 9 Nordeste 0 997.4 1 91
2019-02-13 07:00:00 -2.2 2 Noroeste 8 Noroeste 0 996.9 0.7 92
2019-02-13 06:00:00 -1.4 3 Nordeste 9 Este 0 996.6 0.3 90
2019-02-13 05:00:00 -1.2 4 Nordeste 9 Nordeste 0 996.4 -0.2 91
2019-02-13 04:00:00 -0.9 5 Norte 7 Nordeste 0 996.2 -0.7 89
2019-02-13 03:00:00 -0.5 4 Norte 10 Nordeste 0 996.3 -0.7 88
2019-02-13 02:00:00 0.5 6 Nordeste 9 Nordeste 0 996.6 -0.6 85
2019-02-13 01:00:00 1.1 2 Norte 10 Nordeste 0 996.9 -0.1 83
2019-02-13 00:00:00 1.9 5 Norte 9 Nordeste 0 997 0.3 81
2019-02-12 23:00:00 2.8 2 Norte 10 Norte 0 997.2 0.7 76
2019-02-12 22:00:00 4.6 6 Nordeste 10 Nordeste 0 997 1 70
2019-02-12 21:00:00 6.5 4 Nordeste 7 Norte 0 996.7 1.2 61
2019-02-12 20:00:00 8 3 Oeste 9 Noroeste 0 996.5 1.1 52
2019-02-12 19:00:00 9.9 5 Oeste 14 Noroeste 0 996 0.6 46
2019-02-12 18:00:00 12.2 8 Oeste 20 Oeste 0 995.5 -0.2 39
2019-02-12 17:00:00 13.7 12 Oeste 27 Oeste 0 995.4 -1.2 36
2019-02-12 16:00:00 15.1 10 Oeste 18 Oeste 0 995.4 -2.1 34
2019-02-12 15:00:00 13.3 6 Nordeste 12 Este 0 995.7 -2.3 40
2019-02-12 14:00:00 11.9 3 Nordeste 12 Nordeste 0 996.6 -1.6 46
2019-02-12 13:00:00 9.8 5 Nordeste 11 Nordeste 0 997.5 -0.7 59
2019-02-12 12:00:00 7.8 7 Nordeste 12 Nordeste 0 998 0.1 66
2019-02-12 11:00:00 5.4 6 Nordeste 12 Nordeste 0 998.2 1.1 73
2019-02-12 10:00:00 2.7 8 Nordeste 10 Nordeste 0 998.2 1.6 82
2019-02-12 09:00:00 -0.3 4 Nordeste 11 Nordeste 0 997.9 1.7 92
2019-02-12 08:00:00 -0.2 4 Nordeste 15 Nordeste 0 997.1 1.5 93
2019-02-12 07:00:00 -0.5 2 Este 9 Nordeste 0 996.6 0.8 93
2019-02-12 06:00:00 0.4 4 Norte 12 Este 0 996.2 0.2 89
2019-02-12 05:00:00 0.4 4 Sudoeste 6 Noroeste 0 995.6 -0.4 84
2019-02-12 04:00:00 1.2 5 Nordeste 11 Este 0 995.8 0.1 85
2019-02-12 03:00:00 1.6 4 Nordeste 10 Nordeste 0 996 0.8 86
2019-02-12 02:00:00 2.1 3 Norte 9 Nordeste 0 996 1.1 79
2019-02-12 01:00:00 3 4 Nordeste 10 Nordeste 0 995.7 1.7 82
2019-02-12 00:00:00 3.5 3 Oeste 7 Oeste 0 995.2 2 76
2019-02-11 23:00:00 4.6 4 Oeste 11 Nordeste 0 994.9 2.3 74
2019-02-11 22:00:00 5.9 3 Nordeste 11 Este 0 994 2 72
2019-02-11 21:00:00 7.9 3 Sur 8 Sudoeste 0 993.2 1.9 61
2019-02-11 20:00:00 9.4 4 Sur 10 Noroeste 0 992.6 2 54
2019-02-11 19:00:00 11 3 Sudoeste 11 Oeste 0 992 1.5 47
2019-02-11 18:00:00 13.3 8 Oeste 15 Noroeste 0 991.3 0.7 39
2019-02-11 17:00:00 14.9 8 Oeste 17 Oeste 0 990.6 -0.4 33
2019-02-11 16:00:00 14.9 9 Oeste 19 Oeste 0 990.5 -1.1 35
2019-02-11 15:00:00 14 5 Norte 15 Noroeste 0 990.6 -1.2 40
2019-02-11 14:00:00 12.5 4 Este 15 Este 0 991 -0.5 48
2019-02-11 13:00:00 11.3 4 Este 10 Norte 0 991.6 0.6 54
2019-02-11 12:00:00 9.3 5 Este 12 Nordeste 0 991.8 1.3 61
2019-02-11 11:00:00 7.6 5 Nordeste 12 Este 0 991.5 2.4 66
2019-02-11 10:00:00 5.1 5 Oeste 10 Oeste 0 991 2.5 79
2019-02-11 09:00:00 4.3 3 Nordeste 13 Nordeste 0 990.5 2.8 80
2019-02-11 08:00:00 4.2 4 Nordeste 9 Norte 0 989.1 2.3 82
2019-02-11 07:00:00 4.7 3 Norte 9 Norte 0 988.5 1.5 81
2019-02-11 06:00:00 5.3 4 Oeste 8 Oeste 0 987.7 1.5 80
2019-02-11 05:00:00 7 3 Sur 7 Nordeste 0 986.8 0.9 73
2019-02-11 04:00:00 7.2 3 Oeste 11 Oeste 0 987 1.7 73
2019-02-11 03:00:00 7 3 Norte 16 Oeste 0 986.2 1.9 75
2019-02-11 02:00:00 7.9 5 Sudoeste 12 Oeste 0 985.9 1.8 75
2019-02-11 01:00:00 8.4 0 Calma 10 Norte 0 985.3 2.2 73
2019-02-11 00:00:00 9.8 3 Noroeste 16 Noroeste 0 984.3 1.6 69
2019-02-10 23:00:00 11.3 8 Oeste 22 Oeste 0 984.1 2.1 64
2019-02-10 22:00:00 12.7 12 Oeste 24 Oeste 0 983.1 1.8 59
2019-02-10 21:00:00 13.5 7 Oeste 35 Oeste 0 982.7 1.6 56
2019-02-10 20:00:00 14.4 22 Oeste 39 Oeste 0 982 1.1 53
2019-02-10 19:00:00 14.5 17 Oeste 44 Oeste 0 981.3 0.6 53
2019-02-10 18:00:00 15.2 20 Oeste 40 Oeste 0 981.1 0.5 49
2019-02-10 17:00:00 15.9 21 Oeste 39 Oeste 0 980.9 -0.5 46
2019-02-10 16:00:00 15.9 21 Oeste 42 Oeste 0 980.7 -1.7 45
2019-02-10 15:00:00 15.6 16 Oeste 35 Oeste 0 980.6 -1.8 45
2019-02-10 14:00:00 12.8 22 Oeste 42 Oeste 0 981.4 -1.1 52
2019-02-10 13:00:00 13.1 18 Oeste 35 Oeste 0 982.4 -0.2 52
2019-02-10 12:00:00 12.4 17 Oeste 35 Oeste 0 982.4 -0.4 55
2019-02-10 11:00:00 12.4 20 Oeste 42 Oeste 0 982.5 0.3 56
2019-02-10 10:00:00 9.1 10 Oeste 27 Oeste 0 982.6 0.2 69
2019-02-10 09:00:00 1.7 3 Este 7 Nordeste 0 982.8 -0.1 92
2019-02-10 08:00:00 0.7 3 Noroeste 9 Noroeste 0 982.2 -0.9 93
2019-02-10 07:00:00 0.2 3 Oeste 10 Este 0 982.4 -1.3 93
2019-02-10 06:00:00 1 5 Nordeste 11 Norte 0 982.9 -1.8 93
2019-02-10 05:00:00 1.7 3 Norte 7 Nordeste 0 983.1 -1.9 92
2019-02-10 04:00:00 1.9 3 Nordeste 7 Norte 0 983.7 -1.8 91
2019-02-10 03:00:00 2.6 3 Nordeste 7 Norte 0 984.7 -1.1 90
2019-02-10 02:00:00 3.4 2 Sur 5 Nordeste 0 985 -1 88
2019-02-10 01:00:00 4.1 3 Nordeste 8 Norte 0 985.5 -0.7 85
2019-02-10 00:00:00 4.9 4 Norte 6 Norte 0 985.8 -0.3 83
2019-02-09 23:00:00 6.1 5 Nordeste 8 Nordeste 0 986 -0.1 80
2019-02-09 22:00:00 7.2 2 Nordeste 5 Oeste 0 986.2 0.4 79
2019-02-09 21:00:00 8.7 0 Calma 9 Sur 0 986.1 0.4 73
2019-02-09 20:00:00 11 6 Sudoeste 13 Sudoeste 0 986.1 0.4 73
2019-02-09 19:00:00 12.5 7 Sur 18 Sur 0 985.8 -0.3 62
2019-02-09 18:00:00 14.5 6 Sur 18 Sur 0 985.7 -0.8 51
2019-02-09 17:00:00 16.4 9 Sur 20 Sudoeste 0 985.7 -1.7 35
2019-02-09 16:00:00 16.9 11 Sur 19 Sur 0 986.1 -2.2 33
2019-02-09 15:00:00 16.4 7 Sur 11 Sudoeste 0 986.5 -2.4 42
2019-02-09 14:00:00 14 4 Este 9 Nordeste 0 987.4 -1.8 52
2019-02-09 13:00:00 11.8 5 Nordeste 10 Este 0 988.3 -0.7 62
2019-02-09 12:00:00 8.9 3 Noroeste 8 Oeste 0 988.9 0.5 65
2019-02-09 11:00:00 5.7 3 Oeste 6 Oeste 0 989.2 1.6 79
2019-02-09 10:00:00 2.3 5 Norte 9 Nordeste 0 989 2.2 89
2019-02-09 09:00:00 1.2 2 Norte 6 Sur 0 988.4 2.4 92
2019-02-09 08:00:00 1.2 2 Nordeste 7 Norte 0 987.6 1.9 92
2019-02-09 07:00:00 1 3 Nordeste 5 Norte 0 986.8 0.8 93
2019-02-09 06:00:00 1 0 Calma 7 Norte 0 986 -0.2 92
2019-02-09 05:00:00 1.2 7 Nordeste 12 Nordeste 0 985.7 -0.3 91
2019-02-09 04:00:00 1.8 4 Norte 8 Norte 0 986 -0.2 92
2019-02-09 03:00:00 1.8 3 Norte 12 Nordeste 0 986.2 0 90
2019-02-09 02:00:00 2.4 4 Norte 10 Nordeste 0 986 -0.1 90
2019-02-09 01:00:00 2.9 7 Nordeste 12 Este 0 986.2 0.6 89
2019-02-09 00:00:00 3.9 6 Nordeste 10 Nordeste 0 986.2 0.9 86
2019-02-08 23:00:00 4.8 4 Norte 6 Nordeste 0 986.1 1.1 85
2019-02-08 22:00:00 6.3 3 Norte 5 Norte 0 985.6 1 84
2019-02-08 21:00:00 8.1 2 Sudoeste 7 Oeste 0 985.3 0.8 75
2019-02-08 20:00:00 10.3 5 Sudoeste 16 Sur 0 985 0.3 80
2019-02-08 19:00:00 11.9 6 Sur 14 Oeste 0 984.6 -0.5 71
2019-02-08 18:00:00 14.2 7 Oeste 20 Noroeste 0 984.5 -1.1 45
2019-02-08 17:00:00 15.8 12 Oeste 20 Noroeste 0 984.7 -1.8 40
2019-02-08 16:00:00 15.7 4 Noroeste 14 Oeste 0 985.1 -2.5 46
2019-02-08 15:00:00 14.8 5 Oeste 11 Nordeste 0 985.6 -3.2 51
2019-02-08 14:00:00 12.5 5 Nordeste 12 Nordeste 0 986.5 -2.5 59
2019-02-08 13:00:00 11 3 Este 12 Nordeste 0.4 987.6 -1.7 66
2019-02-08 12:00:00 8.2 3 Noroeste 7 Oeste 0 988.8 -0.2 78
2019-02-08 11:00:00 4.7 2 Noroeste 6 Sudoeste 0 989 0.4 95
2019-02-08 10:00:00 2.6 2 Noroeste 10 Nordeste 0 989.3 0.9 97
2019-02-08 09:00:00 1.8 3 Oeste 6 Oeste 0 989 1 97
2019-02-08 08:00:00 1.6 2 Oeste 7 Norte 0 988.6 0.7 97
2019-02-08 07:00:00 1.3 3 Norte 9 Nordeste 0 988.4 0 97
2019-02-08 06:00:00 1 6 Nordeste 10 Este 0 988 -0.9 96
2019-02-08 05:00:00 1.8 2 Oeste 4 Nordeste 0 987.9 -1 94
2019-02-08 04:00:00 2.2 2 Sudoeste 7 Oeste 0 988.4 -0.7 93
2019-02-08 03:00:00 2.8 2 Nordeste 5 Nordeste 0 988.9 -0.2 93
2019-02-08 02:00:00 3.3 3 Norte 5 Nordeste 0 988.9 0.2 92
2019-02-08 01:00:00 4.3 3 Norte 7 Norte 0 989.1 0.9 88
2019-02-08 00:00:00 5.1 2 Oeste 4 Norte 0 989.1 1.3 87
2019-02-07 23:00:00 5.6 2 Noroeste 7 Oeste 0 988.7 1.5 88
2019-02-07 22:00:00 6.6 3 Noroeste 5 Noroeste 0 988.2 1.6 84
2019-02-07 21:00:00 7.6 3 Norte 5 Nordeste 0 987.8 1.5 83
2019-02-07 20:00:00 8.9 0 Calma 5 Oeste 0 987.2 1.3 78
2019-02-07 19:00:00 10.3 0 Calma 9 Oeste 0 986.6 1.1 72
2019-02-07 18:00:00 12.4 7 Oeste 17 Oeste 0 986.3 0.5 64
2019-02-07 17:00:00 14 9 Oeste 17 Oeste 0 985.9 0 61
2019-02-07 16:00:00 15.3 8 Oeste 15 Oeste 0 985.5 -1.3 56
2019-02-07 15:00:00 14.9 5 Sur 9 Sur 0 985.8 -1.6 57
2019-02-07 14:00:00 14.2 4 Este 8 Nordeste 0 985.9 -1.7 56
2019-02-07 13:00:00 11.8 2 Sudoeste 6 Oeste 0 986.8 -0.9 63
2019-02-07 12:00:00 8 4 Oeste 7 Oeste 0 987.4 0.2 72
2019-02-07 11:00:00 4.3 4 Nordeste 9 Este 0 987.6 1 84
2019-02-07 10:00:00 2.2 4 Oeste 6 Oeste 0 987.7 1.1 93
2019-02-07 09:00:00 0.9 3 Nordeste 8 Nordeste 0 987.2 0.7 94
2019-02-07 08:00:00 0.6 3 Nordeste 6 Nordeste 0 986.6 0.2 95
2019-02-07 07:00:00 0.7 3 Norte 6 Norte 0 986.6 -0.3 95
2019-02-07 06:00:00 1.1 5 Nordeste 8 Nordeste 0 986.5 -0.5 94
2019-02-07 05:00:00 1.6 3 Norte 6 Nordeste 0 986.4 -0.8 94
2019-02-07 04:00:00 2 3 Nordeste 5 Nordeste 0 986.9 -0.6 93
2019-02-07 03:00:00 2.7 4 Nordeste 6 Norte 0 987 -0.5 93
2019-02-07 02:00:00 3.4 3 Norte 6 Nordeste 0 987.2 -0.3 92
2019-02-07 01:00:00 4 3 Norte 8 Norte 0 987.5 -0.1 91
2019-02-07 00:00:00 4.8 3 Norte 6 Nordeste 0 987.5 -0.1 89
2019-02-06 23:00:00 6.1 4 Norte 8 Nordeste 0 987.5 0 87
2019-02-06 22:00:00 7.7 3 Nordeste 6 Norte 0 987.6 0.5 85
2019-02-06 21:00:00 8.8 0 Calma 5 Noroeste 0 987.6 0.9 82
2019-02-06 20:00:00 10.4 3 Sudoeste 14 Noroeste 0 987.5 0.7 75
2019-02-06 19:00:00 11.9 5 Oeste 12 Noroeste 0 987.1 -0.2 70
2019-02-06 18:00:00 14.6 5 Oeste 12 Oeste 0 986.7 -1.3 58
2019-02-06 17:00:00 17.2 5 Sudoeste 10 Sudoeste 0 986.8 -2 47
2019-02-06 16:00:00 17.2 4 Sur 8 Sudoeste 0 987.3 -2.7 43
2019-02-06 15:00:00 15.5 3 Noroeste 8 Este 0 988 -3.2 53
2019-02-06 14:00:00 13.2 3 Este 10 Norte 0 988.8 -2.9 61
2019-02-06 13:00:00 10.7 3 Nordeste 8 Nordeste 0 990 -1.9 70
2019-02-06 12:00:00 8.1 4 Nordeste 9 Este 0 991.2 -0.6 82
2019-02-06 11:00:00 5.6 4 Nordeste 12 Norte 0 991.7 0.3 85
2019-02-06 10:00:00 3.9 8 Nordeste 15 Nordeste 0 991.9 0.8 89
2019-02-06 09:00:00 3.2 5 Nordeste 13 Nordeste 0 991.8 0.6 85
2019-02-06 08:00:00 2.9 8 Nordeste 12 Nordeste 0 991.4 0.2 85
2019-02-06 07:00:00 2.9 6 Nordeste 10 Nordeste 0 991.1 -0.5 86
2019-02-06 06:00:00 2.8 5 Nordeste 11 Nordeste 0 991.2 -0.8 86
2019-02-06 05:00:00 2.4 7 Nordeste 11 Nordeste 0 991.2 -0.7 88
2019-02-06 04:00:00 2.3 6 Nordeste 9 Nordeste 0 991.6 -0.3 88
2019-02-06 03:00:00 3.1 3 Norte 6 Nordeste 0 992 0.4 86
2019-02-06 02:00:00 2.7 4 Norte 9 Nordeste 0 991.9 0.5 88
2019-02-06 01:00:00 3.1 4 Nordeste 7 Norte 0 991.9 0.6 87
2019-02-06 00:00:00 4.4 3 Nordeste 6 Norte 0 991.6 0.8 83
2019-02-05 23:00:00 5 4 Nordeste 7 Norte 0 991.4 0.9 81
2019-02-05 22:00:00 6.4 4 Nordeste 9 Nordeste 0 991.3 1.1 78
2019-02-05 21:00:00 8.3 4 Nordeste 9 Nordeste 0 990.8 1.1 73
2019-02-05 20:00:00 9.8 0 Calma 13 Oeste 0 990.5 0.8 69
2019-02-05 19:00:00 11.5 3 Sur 10 Oeste 0 990.2 0.7 62
2019-02-05 18:00:00 13.5 6 Oeste 19 Oeste 0 989.7 -0.1 54
2019-02-05 17:00:00 15 11 Oeste 20 Noroeste 0 989.7 -0.7 46
2019-02-05 16:00:00 16.3 10 Oeste 18 Noroeste 0 989.5 -1.7 42
2019-02-05 15:00:00 15.9 7 Sudoeste 12 Oeste 0 989.8 -2.2 41
2019-02-05 14:00:00 13.3 8 Este 14 Este 0 990.4 -1.5 47
2019-02-05 13:00:00 11.8 4 Norte 12 Nordeste 0 991.2 -0.8 52
2019-02-05 12:00:00 9 5 Nordeste 13 Nordeste 0 992 0.1 54
2019-02-05 11:00:00 5.8 5 Norte 12 Nordeste 0 991.9 0.3 60
2019-02-05 10:00:00 3.2 6 Nordeste 12 Nordeste 0 992 0.6 71
2019-02-05 09:00:00 0.6 5 Nordeste 9 Este 0 991.9 0.6 82
2019-02-05 08:00:00 0.8 4 Este 7 Nordeste 0 991.6 0.4 81
2019-02-05 07:00:00 1.3 2 Norte 7 Nordeste 0 991.4 0.1 80
2019-02-05 06:00:00 1.7 4 Nordeste 9 Nordeste 0 991.3 -0.2 79
2019-02-05 05:00:00 2 2 Nordeste 4 Norte 0 991.2 -0.5 77
2019-02-05 04:00:00 2.5 3 Norte 5 Nordeste 0 991.3 -0.7 74
2019-02-05 03:00:00 2.7 0 Calma 5 Norte 0 991.5 -0.3 74
2019-02-05 02:00:00 3.1 4 Nordeste 7 Nordeste 0 991.7 0 71
2019-02-05 01:00:00 3.7 4 Nordeste 9 Nordeste 0 992 0.5 68
2019-02-05 00:00:00 4.2 4 Nordeste 8 Nordeste 0 991.8 0.5 67
2019-02-04 23:00:00 4.4 2 Norte 5 Este 0 991.7 0.4 66
2019-02-04 22:00:00 5.1 0 Calma 5 Oeste 0 991.5 0.4 64
2019-02-04 21:00:00 5.9 3 Este 6 Este 0 991.3 0.5 58
2019-02-04 20:00:00 6.7 0 Calma 13 Oeste 0 991.3 1 53
2019-02-04 19:00:00 7.3 7 Noroeste 13 Oeste 0 991.1 1.1 51
2019-02-04 18:00:00 8.7 6 Oeste 17 Oeste 0 990.8 0.6 48
2019-02-04 17:00:00 11.6 9 Oeste 15 Oeste 0 990.3 -0.4 36
2019-02-04 16:00:00 11.4 4 Oeste 17 Este 0 990 -1.4 32
2019-02-04 15:00:00 10.5 4 Sudoeste 12 Nordeste 0 990.2 -1.7 35
2019-02-04 14:00:00 8.7 5 Este 13 Nordeste 0 990.7 -1.8 40
2019-02-04 13:00:00 6.7 8 Nordeste 16 Norte 0 991.4 -0.5 46
2019-02-04 12:00:00 4.9 9 Nordeste 17 Nordeste 0 991.9 0.5 53
2019-02-04 11:00:00 2.6 9 Nordeste 16 Nordeste 0 992.5 1.8 53
2019-02-04 10:00:00 -0.8 8 Nordeste 15 Nordeste 0 991.9 2.5 60
2019-02-04 09:00:00 -3.6 9 Nordeste 20 Este 0 991.4 1.6 69
2019-02-04 08:00:00 -4.1 13 Este 22 Nordeste 0 990.7 1.9 68
2019-02-04 07:00:00 -3.7 8 Nordeste 17 Este 0 989.4 0.9 65
2019-02-04 06:00:00 -4 9 Nordeste 15 Nordeste 0 989.8 1.7 67
2019-02-04 05:00:00 -3 9 Nordeste 16 Nordeste 0 988.8 1.4 62
2019-02-04 04:00:00 -2.3 6 Este 13 Norte 0 988.5 1.1 60
2019-02-04 03:00:00 -0.5 4 Nordeste 14 Nordeste 0 988.1 0.9 48
2019-02-04 02:00:00 -2.3 3 Nordeste 14 Este 0 987.4 0.4 64
2019-02-04 01:00:00 -1.8 6 Norte 14 Este 0 987.4 0.8 62
2019-02-04 00:00:00 -0.4 4 Este 10 Este 0 987.2 1.7 54
2019-02-03 23:00:00 0.6 3 Este 12 Este 0 987 2 49
2019-02-03 22:00:00 1.9 3 Noroeste 7 Noroeste 0 986.6 2.5 45
2019-02-03 21:00:00 3.7 4 Oeste 16 Oeste 0 985.5 2.5 35
2019-02-03 20:00:00 5.1 5 Oeste 17 Oeste 0 985 2.6 31
2019-02-03 19:00:00 6.2 3 Norte 17 Nordeste 0 984.1 2.4 29
2019-02-03 18:00:00 8.4 9 Nordeste 25 Nordeste 0 983 2.2 24
2019-02-03 17:00:00 9.8 16 Nordeste 38 Nordeste 0 982.4 2.1 20
2019-02-03 16:00:00 10.4 22 Nordeste 46 Nordeste 0 981.7 1.3 18
2019-02-03 15:00:00 10.9 21 Nordeste 40 Nordeste 0 980.8 0.3 16
2019-02-03 14:00:00 10.8 7 Nordeste 17 Nordeste 0 980.3 0.2 17
2019-02-03 13:00:00 10.6 3 Oeste 7 Noroeste 0 980.4 0.6 18
2019-02-03 12:00:00 9 2 Nordeste 9 Nordeste 0 980.5 1.7 21
2019-02-03 11:00:00 4.3 3 Nordeste 8 Nordeste 0 980.1 2.7 48
2019-02-03 10:00:00 0.6 3 Nordeste 9 Nordeste 0 979.8 3.2 58
2019-02-03 09:00:00 -3.4 5 Nordeste 9 Nordeste 0 978.8 2.9 73
2019-02-03 08:00:00 -3.6 5 Nordeste 10 Norte 0 977.4 2.3 75
2019-02-03 07:00:00 -3.4 4 Este 9 Norte 0 976.6 2.1 76
2019-02-03 06:00:00 -3.3 0 Calma 7 Nordeste 0 975.9 1.7 77
2019-02-03 05:00:00 -2.4 4 Este 10 Nordeste 0 975.1 1.6 74
2019-02-03 04:00:00 -1.3 2 Este 10 Este 0 974.5 1.3 67
2019-02-03 03:00:00 -0.1 3 Este 18 Oeste 0 974.2 1.6 60
2019-02-03 02:00:00 2.8 6 Sudoeste 21 Noroeste 0 973.5 1.6 36
2019-02-03 01:00:00 3.9 8 Oeste 26 Noroeste 0 973.2 1.9 31
2019-02-03 00:00:00 4.5 13 Oeste 34 Noroeste 0 972.6 2.4 34
2019-02-02 23:00:00 6.4 17 Noroeste 34 Oeste 0 971.9 2.6 23
2019-02-02 22:00:00 6.5 9 Noroeste 27 Noroeste 0 971.3 3.4 29
2019-02-02 21:00:00 7.4 14 Noroeste 30 Oeste 0 970.2 3.5 29
2019-02-02 20:00:00 8 17 Noroeste 40 Noroeste 0 969.3 4 28
2019-02-02 19:00:00 8.4 15 Noroeste 43 Noroeste 0 967.9 3.6 28
2019-02-02 18:00:00 10 20 Noroeste 46 Noroeste 0 966.7 2.7 24
2019-02-02 17:00:00 11.7 24 Noroeste 51 Norte 0 965.3 1.5 24
2019-02-02 16:00:00 11 23 Oeste 46 Noroeste 0 964.3 0.5 56
2019-02-02 15:00:00 11 17 Oeste 36 Oeste 0 964 0.5 54
2019-02-02 14:00:00 8.8 17 Oeste 36 Oeste 0 963.8 0.7 64
2019-02-02 13:00:00 7.8 14 Oeste 24 Oeste 0 963.8 1.6 66
2019-02-02 12:00:00 6.6 9 Noroeste 32 Oeste 0 963.5 2.2 69
2019-02-02 11:00:00 5.6 9 Norte 28 Oeste 0 963.1 3.3 73
2019-02-02 10:00:00 5.2 6 Norte 24 Oeste 0 962.2 3.1 74
2019-02-02 09:00:00 4.4 10 Nordeste 20 Oeste 0 961.3 2.9 77
2019-02-02 08:00:00 4.8 10 Noroeste 28 Oeste 0 959.8 1.8 76
2019-02-02 07:00:00 4.6 12 Oeste 27 Noroeste 0 959.1 1.5 76
2019-02-02 06:00:00 5 8 Noroeste 28 Noroeste 0 958.4 1.3 74
2019-02-02 05:00:00 3.6 4 Oeste 10 Oeste 0 958 1.1 80
2019-02-02 04:00:00 4.3 2 Oeste 22 Sudoeste 0 957.6 0.3 78
2019-02-02 03:00:00 4.8 9 Oeste 23 Sudoeste 0 957.1 -0.4 78
2019-02-02 02:00:00 5.7 12 Oeste 28 Noroeste 0 956.9 -0.8 76
2019-02-02 01:00:00 6.3 8 Oeste 13 Oeste 0 957.3 0.4 73
2019-02-02 00:00:00 6.4 4 Norte 28 Oeste 0 957.5 1.6 74
2019-02-01 23:00:00 7.2 15 Oeste 33 Oeste 0 957.7 1.7 74
2019-02-01 22:00:00 6.9 10 Oeste 19 Oeste 0 956.9 1 72
2019-02-01 21:00:00 6.7 4 Sudoeste 8 Oeste 0 955.9 0.4 68
2019-02-01 20:00:00 8.2 0 Calma 10 Sudoeste 0 956 0.2 63
2019-02-01 19:00:00 10.1 5 Sudoeste 8 Sudoeste 0 955.9 0.4 56
2019-02-01 18:00:00 11.8 7 Oeste 27 Oeste 0 955.5 -0.2 52
2019-02-01 17:00:00 13.4 10 Oeste 28 Oeste 0 955.8 -0.2 49
2019-02-01 16:00:00 13.8 13 Oeste 32 Oeste 0 955.5 -1 48
2019-02-01 15:00:00 13.9 15 Oeste 48 Oeste 0 955.7 -1.6 51
2019-02-01 14:00:00 13.3 16 Oeste 33 Oeste 0 956 -1.6 56
2019-02-01 13:00:00 13.1 14 Oeste 23 Oeste 0 956.5 -1.5 60
2019-02-01 12:00:00 11.4 4 Nordeste 14 Oeste 0 957.3 0 69
2019-02-01 11:00:00 10.5 4 Sudoeste 17 Oeste 0 957.6 0.9 72
2019-02-01 10:00:00 8.4 5 Noroeste 10 Oeste 0.2 958 1.5 86
2019-02-01 09:00:00 6.8 2 Este 6 Oeste 0 957.3 -0.3 92
2019-02-01 08:00:00 6.1 3 Oeste 8 Oeste 0 956.7 -0.9 92
2019-02-01 07:00:00 6.1 4 Norte 15 Este 0 956.5 -2.3 92
2019-02-01 06:00:00 6 4 Norte 8 Nordeste 0 957.6 -2.3 91
2019-02-01 05:00:00 6.2 3 Nordeste 6 Nordeste 0 957.6 -3 89
2019-02-01 04:00:00 6.3 3 Nordeste 6 Sur 0 958.8 -2.7 89
2019-02-01 03:00:00 6.3 2 Oeste 7 Oeste 0 959.9 -1.7 89
2019-02-01 02:00:00 6.7 3 Norte 10 Nordeste 0 960.6 -1.9 88
2019-02-01 01:00:00 6.6 3 Nordeste 13 Nordeste 0 961.5 -1.2 87
2019-02-01 00:00:00 7.4 6 Nordeste 10 Nordeste 0 961.6 -1.8 86
2019-01-31 23:00:00 7.9 3 Nordeste 8 Nordeste 0 962.5 -1 84
2019-01-31 22:00:00 8.8 4 Nordeste 8 Este 0 962.7 -1 80
2019-01-31 21:00:00 8.7 2 Nordeste 7 Noroeste 0 963.4 -0.2 81
2019-01-31 20:00:00 9.9 3 Sudoeste 13 Sudoeste 0 963.5 -0.2 74
2019-01-31 19:00:00 10.8 2 Noroeste 11 Oeste 0 963.7 -0.1 71
2019-01-31 18:00:00 12.2 6 Oeste 21 Oeste 0 963.6 -0.1 66
2019-01-31 17:00:00 12.8 9 Oeste 33 Noroeste 0 963.7 0 63
2019-01-31 16:00:00 14.1 12 Oeste 29 Oeste 0 963.8 -0.4 58
2019-01-31 15:00:00 13.2 9 Oeste 26 Oeste 0 963.7 -1.6 63
2019-01-31 14:00:00 12.3 9 Noroeste 22 Noroeste 0 963.7 -1.8 63
2019-01-31 13:00:00 11.2 4 Oeste 11 Oeste 0 964.2 -1.4 66
2019-01-31 12:00:00 9.1 5 Oeste 9 Oeste 0 965.3 0.1 66
2019-01-31 11:00:00 7.2 3 Este 11 Este 0 965.5 0.5 69
2019-01-31 10:00:00 3 6 Nordeste 12 Nordeste 0 965.6 0.4 82
2019-01-31 09:00:00 2 5 Nordeste 10 Nordeste 0 965.2 -0.6 84
2019-01-31 08:00:00 2.6 5 Nordeste 10 Nordeste 0 965 -1.4 81
2019-01-31 07:00:00 4.4 0 Calma 8 Sudoeste 0 965.2 -1.6 77
2019-01-31 06:00:00 4.6 2 Sur 13 Noroeste 0 965.8 -2.4 74
2019-01-31 05:00:00 5 9 Oeste 14 Noroeste 0 966.4 -2.8 72
2019-01-31 04:00:00 4.4 4 Oeste 13 Noroeste 0 966.8 -2.9 70
2019-01-31 03:00:00 4.1 3 Sudeste 7 Sur 0 968.2 -2 70
2019-01-31 02:00:00 4.3 4 Oeste 7 Noroeste 0 969.2 -1.4 67
2019-01-31 01:00:00 4.5 3 Sudoeste 8 Oeste 0 969.7 -1.2 65
2019-01-31 00:00:00 4.3 5 Oeste 12 Sur 0 970.2 -1.3 65
2019-01-30 23:00:00 4.8 4 Oeste 9 Oeste 0 970.6 -1.2 61
2019-01-30 22:00:00 6.5 5 Sudoeste 14 Sudoeste 0 970.9 -0.7 53
2019-01-30 21:00:00 6.5 5 Sudoeste 19 Oeste 0 971.5 0.1 56
2019-01-30 20:00:00 7 6 Sudoeste 22 Oeste 0 971.8 0.1 56
2019-01-30 19:00:00 7.8 10 Oeste 34 Oeste 0 971.6 -0.3 57
2019-01-30 18:00:00 8.6 15 Oeste 30 Oeste 0 971.4 -0.9 56
2019-01-30 17:00:00 10 18 Oeste 38 Oeste 0 971.7 -1.3 51
2019-01-30 16:00:00 11.1 12 Oeste 37 Oeste 0 971.9 -1.6 47
2019-01-30 15:00:00 9.5 15 Oeste 36 Oeste 0 972.3 -1.8 50
2019-01-30 14:00:00 9.8 12 Oeste 35 Oeste 0 973 -1.5 50
2019-01-30 13:00:00 8.8 15 Oeste 27 Oeste 0 973.5 -0.4 55
2019-01-30 12:00:00 7.9 12 Oeste 21 Oeste 0 974.1 0.3 60
2019-01-30 11:00:00 6.5 9 Nordeste 23 Oeste 0 974.5 1 66
2019-01-30 10:00:00 5.1 9 Noroeste 35 Oeste 0 973.9 0.8 71
2019-01-30 09:00:00 3.6 20 Noroeste 33 Oeste 0 973.8 0.8 76
2019-01-30 08:00:00 3.2 8 Noroeste 18 Noroeste 0 973.5 1.3 78
2019-01-30 07:00:00 3.3 4 Norte 23 Oeste 0 973.1 0.8 78
2019-01-30 06:00:00 3.9 12 Noroeste 26 Oeste 0 973 1.3 76
2019-01-30 05:00:00 3.9 8 Oeste 20 Noroeste 0 972.2 1.3 75
2019-01-30 04:00:00 3.6 4 Oeste 14 Sudoeste 0 972.3 1.6 78
2019-01-30 03:00:00 4.3 4 Noroeste 26 Noroeste 0 971.7 1.3 78
2019-01-30 02:00:00 4.8 6 Noroeste 14 Nordeste 0 970.9 0.4 78
2019-01-30 01:00:00 5.4 5 Oeste 25 Oeste 0 970.7 0.4 77
2019-01-30 00:00:00 6 9 Oeste 25 Oeste 0 970.4 0.1 76
2019-01-29 23:00:00 5.8 5 Oeste 15 Oeste 0 970.5 0.3 76
2019-01-29 22:00:00 5.8 5 Sudoeste 12 Oeste 0 970.3 -0.3 78
2019-01-29 21:00:00 5.6 4 Oeste 8 Oeste 0 970.3 -0.8 79
2019-01-29 20:00:00 5.8 2 Sudeste 8 Oeste 0 970.2 -2.2 79
2019-01-29 19:00:00 5.7 2 Nordeste 9 Norte 0 970.6 -2.3 78
2019-01-29 18:00:00 5.2 2 Sudoeste 5 Nordeste 0 971.1 -2.9 79
2019-01-29 17:00:00 5 5 Nordeste 7 Nordeste 0 972.4 -2.7 77
2019-01-29 16:00:00 4.9 2 Sur 7 Oeste 0 972.9 -3.4 75
2019-01-29 15:00:00 4.4 3 Nordeste 6 Nordeste 0 974 -3.6 78
2019-01-29 14:00:00 3.4 3 Nordeste 7 Nordeste 0 975.1 -2.8 81
2019-01-29 13:00:00 3.1 4 Nordeste 6 Nordeste 0 976.3 -2.2 79
2019-01-29 12:00:00 2 2 Nordeste 6 Norte 0 977.6 -1.1 82
2019-01-29 11:00:00 0.9 3 Sudoeste 8 Oeste 0 977.9 -0.1 85
2019-01-29 10:00:00 -0.1 5 Norte 13 Nordeste 0 978.5 1.2 89
2019-01-29 09:00:00 -1.1 2 Nordeste 7 Norte 0 978.7 2.1 92
2019-01-29 08:00:00 -1.4 5 Nordeste 12 Nordeste 0 978 1.2 92
2019-01-29 07:00:00 -0.9 8 Este 14 Este 0 977.3 0.9 91
2019-01-29 06:00:00 -0.6 9 Nordeste 13 Nordeste 0 976.6 0 91
2019-01-29 05:00:00 -0.2 4 Este 14 Este 0 976.8 0.2 90
2019-01-29 04:00:00 0.2 6 Este 13 Este 0 976.4 -0.2 89
2019-01-29 03:00:00 1 2 Sur 10 Norte 0 976.6 0 88
2019-01-29 02:00:00 1 6 Norte 13 Oeste 0 976.6 0.5 85
2019-01-29 01:00:00 2.6 4 Sur 13 Norte 0 976.6 0.9 80
2019-01-29 00:00:00 5.1 6 Oeste 20 Oeste 0 976.6 1.1 71
2019-01-28 23:00:00 4.7 4 Nordeste 18 Oeste 0 976.1 1.2 75
2019-01-28 22:00:00 5.5 10 Oeste 19 Noroeste 0 975.7 1.6 70
2019-01-28 21:00:00 4.9 3 Norte 7 Nordeste 0 975.5 2 72
2019-01-28 20:00:00 5.6 2 Sudoeste 9 Este 0 974.9 2 69
2019-01-28 19:00:00 6.8 3 Este 14 Oeste 0 974.1 2.3 64
2019-01-28 18:00:00 9 5 Noroeste 24 Norte 0 973.5 2.5 54
2019-01-28 17:00:00 10.6 14 Norte 32 Nordeste 0 972.9 0.9 53
2019-01-28 16:00:00 11.7 12 Norte 41 Oeste 0 971.8 -0.2 52
2019-01-28 15:00:00 11.5 16 Noroeste 44 Oeste 0 971 -0.8 51
2019-01-28 14:00:00 9.5 7 Noroeste 21 Noroeste 0 972 -0.5 60
2019-01-28 13:00:00 9.6 13 Noroeste 33 Noroeste 0 972 -1.3 60
2019-01-28 12:00:00 8.4 14 Noroeste 27 Oeste 0 971.8 0 61
2019-01-28 11:00:00 5.8 4 Este 31 Noroeste 0 972.5 -1.1 68
2019-01-28 10:00:00 2.6 4 Norte 14 Norte 0 973.3 -1.2 82
2019-01-28 09:00:00 2.8 7 Norte 27 Oeste 0 971.8 -3.1 76
2019-01-28 08:00:00 3.1 7 Noroeste 25 Oeste 0 973.6 -1.5 79
2019-01-28 07:00:00 -0.3 7 Norte 19 Oeste 0 974.5 -1 79
2019-01-28 06:00:00 1.7 8 Noroeste 24 Noroeste 0 974.9 -0.8 76
2019-01-28 05:00:00 3.5 12 Oeste 26 Noroeste 0 975.1 -0.3 74
2019-01-28 04:00:00 3.7 4 Norte 21 Oeste 0 975.5 0 70
2019-01-28 03:00:00 3.9 10 Oeste 17 Oeste 0 975.7 0.9 67
2019-01-28 02:00:00 4.1 7 Noroeste 18 Oeste 0 975.4 1.1 66
2019-01-28 01:00:00 4.3 8 Oeste 21 Oeste 0 975.5 1.1 66
2019-01-28 00:00:00 4.9 3 Sudeste 27 Noroeste 0 974.8 0.7 62
2019-01-27 23:00:00 5.7 13 Oeste 37 Oeste 0 974.3 0.6 59
2019-01-27 22:00:00 6.1 12 Sudoeste 34 Oeste 0 974.4 1.7 58
2019-01-27 21:00:00 6.8 23 Oeste 48 Oeste 0 974.1 2.4 57
2019-01-27 20:00:00 7.8 22 Oeste 46 Noroeste 0 973.7 2.8 54
2019-01-27 19:00:00 9.2 24 Oeste 39 Noroeste 0 972.7 2.1 50
2019-01-27 18:00:00 11.3 13 Oeste 28 Oeste 0 971.7 1 46
2019-01-27 17:00:00 12.7 5 Noroeste 37 Oeste 0 970.9 -0.3 45
2019-01-27 16:00:00 13.9 22 Oeste 42 Oeste 0 970.6 -1.5 39
2019-01-27 15:00:00 13.5 20 Oeste 45 Oeste 0 970.7 -1.8 43
2019-01-27 14:00:00 11.3 13 Nordeste 23 Nordeste 0 971.2 -1.8 58
2019-01-27 13:00:00 10.7 12 Nordeste 23 Norte 0 972.1 -1.1 63
2019-01-27 12:00:00 10.3 6 Norte 24 Nordeste 0 972.5 -1.1 65
2019-01-27 11:00:00 7 4 Norte 10 Nordeste 0 973 -0.7 78
2019-01-27 10:00:00 2.6 4 Nordeste 10 Nordeste 0 973.2 -0.5 91
2019-01-27 09:00:00 0.2 2 Oeste 7 Oeste 0 973.6 -0.5 94
2019-01-27 08:00:00 0.1 3 Nordeste 15 Nordeste 0 973.7 -1 94
2019-01-27 07:00:00 0.7 8 Nordeste 14 Este 0 973.7 -2 94
2019-01-27 06:00:00 0.8 8 Nordeste 18 Nordeste 0 974.1 -2.2 94
2019-01-27 05:00:00 0.9 5 Norte 14 Nordeste 0 974.7 -2.2 93
2019-01-27 04:00:00 1.1 7 Nordeste 12 Nordeste 0 975.7 -1.8 93
2019-01-27 03:00:00 1.2 4 Nordeste 12 Nordeste 0 976.3 -1.9 93
2019-01-27 02:00:00 1.9 5 Nordeste 10 Nordeste 0 976.9 -1.3 92
2019-01-27 01:00:00 2.1 5 Nordeste 11 Nordeste 0 977.5 -1.1 92
2019-01-27 00:00:00 2.8 6 Nordeste 12 Nordeste 0 978.2 -0.7 91
2019-01-26 23:00:00 3.3 4 Norte 8 Nordeste 0 978.2 -1.2 91
2019-01-26 22:00:00 4.5 4 Nordeste 7 Nordeste 0 978.6 -1.1 89
2019-01-26 21:00:00 6 4 Norte 7 Norte 0 978.9 -1.5 84
2019-01-26 20:00:00 7.9 2 Norte 10 Noroeste 0 979.4 -1.4 77
2019-01-26 19:00:00 10.2 2 Norte 15 Oeste 0 979.7 -1.6 68
2019-01-26 18:00:00 11.9 11 Oeste 17 Oeste 0 980.4 -1.4 62
2019-01-26 17:00:00 13.3 10 Noroeste 28 Oeste 0 980.8 -1.6 56
2019-01-26 16:00:00 14 8 Oeste 17 Oeste 0 981.3 -2.4 56
2019-01-26 15:00:00 12.7 8 Nordeste 19 Norte 0 981.8 -2.5 59
2019-01-26 14:00:00 12.1 12 Noroeste 23 Noroeste 0 982.4 -1.8 59
2019-01-26 13:00:00 10.5 15 Noroeste 27 Noroeste 0 983.7 -0.8 66
2019-01-26 12:00:00 8.8 5 Nordeste 15 Este 0 984.3 0.2 72
2019-01-26 11:00:00 5.7 6 Nordeste 10 Nordeste 0 984.2 0.6 80
2019-01-26 10:00:00 3.3 4 Norte 15 Nordeste 0 984.5 1.2 86
2019-01-26 09:00:00 1.6 10 Este 21 Este 0 984.1 0.9 91
2019-01-26 08:00:00 1.2 11 Nordeste 19 Nordeste 0 983.6 0.7 90
2019-01-26 07:00:00 2.4 9 Nordeste 18 Este 0 983.3 0.8 90
2019-01-26 06:00:00 2 9 Nordeste 17 Este 0 983.2 1.2 87
2019-01-26 05:00:00 0.8 5 Norte 10 Norte 0 982.9 1.3 87
2019-01-26 04:00:00 1.4 5 Este 9 Nordeste 0 982.5 1.6 86
2019-01-26 03:00:00 1.8 5 Este 18 Nordeste 0 982 1.5 82
2019-01-26 02:00:00 1.2 6 Nordeste 12 Nordeste 0 981.6 1.7 84
2019-01-26 01:00:00 1.8 6 Nordeste 9 Norte 0 980.9 1.8 84
2019-01-26 00:00:00 2.6 4 Nordeste 9 Norte 0 980.5 2.2 83
2019-01-25 23:00:00 3.6 3 Norte 8 Nordeste 0 979.9 2.2 79
2019-01-25 22:00:00 5 3 Sudeste 9 Sudeste 0 979.1 2 72
2019-01-25 21:00:00 6.8 3 Sudeste 10 Oeste 0 978.3 2.1 64
2019-01-25 20:00:00 9 4 Sudeste 20 Sur 0 977.7 1.7 54
2019-01-25 19:00:00 11.9 7 Sur 22 Sur 0 977.1 1.2 50
2019-01-25 18:00:00 13.5 9 Sur 18 Sur 0 976.2 0.4 43
2019-01-25 17:00:00 15.3 7 Sudoeste 13 Sur 0 976 -0.3 37
2019-01-25 16:00:00 14.2 6 Este 13 Este 0 975.9 -1.2 36
2019-01-25 15:00:00 13.8 2 Este 6 Oeste 0 975.8 -2.2 34
2019-01-25 14:00:00 10.9 4 Norte 11 Nordeste 0 976.3 -1.6 36
2019-01-25 13:00:00 8.5 3 Nordeste 9 Nordeste 0 977.1 -0.6 38
2019-01-25 12:00:00 5.8 3 Norte 8 Nordeste 0 978 0.8 42
2019-01-25 11:00:00 2.1 3 Oeste 6 Nordeste 0 977.9 1.3 52
2019-01-25 10:00:00 -0.9 2 Sudeste 8 Nordeste 0 977.7 1.6 63
2019-01-25 09:00:00 -3.8 5 Norte 12 Nordeste 0 977.2 1.4 74
2019-01-25 08:00:00 -3.9 4 Nordeste 8 Nordeste 0 976.6 1 75
2019-01-25 07:00:00 -3.8 4 Nordeste 8 Nordeste 0 976.1 0.4 72
2019-01-25 06:00:00 -3.6 3 Norte 11 Nordeste 0 975.8 0.1 72
2019-01-25 05:00:00 -3.4 4 Nordeste 9 Nordeste 0 975.6 0.1 71
2019-01-25 04:00:00 -3.2 3 Este 6 Nordeste 0 975.7 0.4 70
2019-01-25 03:00:00 -3 3 Nordeste 7 Nordeste 0 975.7 0.3 70
2019-01-25 02:00:00 -2.9 4 Norte 13 Nordeste 0 975.5 0.3 68
2019-01-25 01:00:00 -2.2 4 Nordeste 10 Nordeste 0 975.3 0.4 67
2019-01-25 00:00:00 -1.4 6 Nordeste 12 Norte 0 975.4 1 62
2019-01-24 23:00:00 -0.3 2 Sudeste 13 Nordeste 0 975.2 1.2 57
2019-01-24 22:00:00 1.9 4 Sur 10 Oeste 0 974.9 1.6 43
2019-01-24 21:00:00 3.8 4 Noroeste 16 Noroeste 0 974.4 1.9 33
2019-01-24 20:00:00 4.2 8 Oeste 18 Noroeste 0 974 2.8 32
2019-01-24 19:00:00 5 6 Oeste 19 Oeste 0 973.3 2.8 32
2019-01-24 18:00:00 6.5 9 Oeste 19 Oeste 0 972.5 3.1 30
2019-01-24 17:00:00 9.9 10 Nordeste 27 Norte 0 971.2 2.1 19
2019-01-24 16:00:00 10.8 13 Norte 24 Nordeste 0 970.5 1.5 20
2019-01-24 15:00:00 11.4 8 Noroeste 23 Norte 0 969.4 -0.8 19
2019-01-24 14:00:00 11 8 Noroeste 31 Norte 0 969.1 -0.6 21
2019-01-24 13:00:00 10.1 11 Norte 35 Norte 0 969 -0.6 25
2019-01-24 12:00:00 8.2 10 Norte 34 Noroeste 0 970.2 0.7 27
2019-01-24 11:00:00 6.7 11 Noroeste 30 Norte 0 969.7 1.4 31
2019-01-24 10:00:00 5.6 10 Norte 33 Nordeste 0 969.6 2.3 33
2019-01-24 09:00:00 3.6 9 Nordeste 23 Norte 0 969.5 2.9 40
2019-01-24 08:00:00 2.8 8 Nordeste 23 Nordeste 0 968.3 1.9 45
2019-01-24 07:00:00 3.9 9 Noroeste 38 Noroeste 0 967.3 1.4 39
2019-01-24 06:00:00 3.8 10 Noroeste 32 Noroeste 0 966.6 0.9 39
2019-01-24 05:00:00 4 12 Noroeste 36 Norte 0 966.4 0.4 37
2019-01-24 04:00:00 3.2 7 Noroeste 38 Noroeste 0 965.9 -0.2 49
2019-01-24 03:00:00 2.1 7 Noroeste 17 Norte 0 965.7 0 58
2019-01-24 02:00:00 0.6 4 Sur 9 Sudeste 0 966 0.6 89
2019-01-24 01:00:00 1.8 4 Sudeste 17 Nordeste 0 966.1 1.4 84
2019-01-24 00:00:00 2.7 8 Nordeste 15 Este 0 965.7 1.6 80
2019-01-23 23:00:00 3.2 8 Nordeste 22 Nordeste 0 965.4 1.9 79
2019-01-23 22:00:00 3.7 13 Nordeste 26 Nordeste 0 964.7 1.5 78
2019-01-23 21:00:00 6.1 6 Noroeste 26 Noroeste 0 964.1 2.1 58
2019-01-23 20:00:00 6.6 12 Noroeste 32 Norte 0 963.5 1.7 52
2019-01-23 19:00:00 7.2 9 Norte 31 Noroeste 0 963.2 1.5 54
2019-01-23 18:00:00 7.5 7 Noroeste 23 Noroeste 0 962 -0.1 58
2019-01-23 17:00:00 7.7 7 Noroeste 21 Oeste 0 961.8 -0.9 70
2019-01-23 16:00:00 7.2 10 Nordeste 20 Nordeste 0 961.7 -1.7 75
2019-01-23 15:00:00 6.8 6 Nordeste 15 Este 0 962.1 -2.4 77
2019-01-23 14:00:00 5.3 5 Nordeste 15 Nordeste 0 962.7 -1.5 79
2019-01-23 13:00:00 4.9 4 Noroeste 9 Noroeste 0 963.4 -1.7 79
2019-01-23 12:00:00 2.6 5 Nordeste 19 Nordeste 0 964.5 -0.6 91
2019-01-23 11:00:00 1.3 6 Nordeste 16 Nordeste 0.4 964.2 -1.2 96
2019-01-23 10:00:00 0.8 9 Nordeste 21 Nordeste 1 965.1 -1.4 93
2019-01-23 09:00:00 2.1 10 Nordeste 15 Este 0 965.1 -2.2 87
2019-01-23 08:00:00 2 10 Nordeste 15 Este 0 965.4 -2.6 85
2019-01-23 07:00:00 1.8 8 Nordeste 15 Nordeste 0 966.5 -2.5 86
2019-01-23 06:00:00 1.1 6 Nordeste 13 Este 0 967.3 -2.8 87
2019-01-23 05:00:00 0.9 6 Nordeste 15 Nordeste 0 968 -2.7 85
2019-01-23 04:00:00 0.4 6 Nordeste 10 Nordeste 0 969 -2.1 87
2019-01-23 03:00:00 0 3 Noroeste 12 Este 0 970.1 -1.8 88
2019-01-23 02:00:00 -0.4 5 Nordeste 13 Este 0 970.7 -1.4 88
2019-01-23 01:00:00 0.3 5 Norte 10 Nordeste 0 971.1 -0.9 85
2019-01-23 00:00:00 1.1 3 Norte 15 Nordeste 0 971.9 -0.4 81
2019-01-22 23:00:00 1.6 8 Este 13 Este 0 972.1 -0.2 81
2019-01-22 22:00:00 2.1 6 Nordeste 10 Este 0 972 -0.4 78
2019-01-22 21:00:00 2.6 5 Nordeste 10 Este 0 972.3 -0.6 76
2019-01-22 20:00:00 3.6 7 Nordeste 20 Noroeste 0 972.3 -1.3 71
2019-01-22 19:00:00 4.9 8 Noroeste 18 Noroeste 0 972.4 -1.8 71
2019-01-22 18:00:00 5.2 3 Noroeste 12 Noroeste 0 972.9 -2.4 61
2019-01-22 17:00:00 6 6 Noroeste 12 Norte 0 973.6 -2.8 57
2019-01-22 16:00:00 6.3 5 Noroeste 13 Noroeste 0 974.2 -3.7 53
2019-01-22 15:00:00 5.2 5 Nordeste 11 Este 0 975.3 -4 64
2019-01-22 14:00:00 4.3 5 Nordeste 12 Este 0 976.4 -3.2 68
2019-01-22 13:00:00 3.6 7 Nordeste 15 Nordeste 0 977.9 -2.2 70
2019-01-22 12:00:00 2 5 Nordeste 9 Nordeste 0 979.3 -1 78
2019-01-22 11:00:00 0.5 4 Este 12 Este 0 979.6 -0.5 82
2019-01-22 10:00:00 -1.5 7 Nordeste 12 Nordeste 0 980.1 -0.2 90
2019-01-22 09:00:00 -3.7 8 Norte 12 Norte 0 980.3 0.1 93
2019-01-22 08:00:00 -3.4 5 Nordeste 9 Nordeste 0 980.1 -0.7 94
2019-01-22 07:00:00 -3.5 3 Nordeste 9 Norte 0 980.3 -0.9 95
2019-01-22 06:00:00 -3.2 4 Nordeste 8 Norte 0 980.2 -1.5 95
2019-01-22 05:00:00 -2.6 5 Norte 10 Nordeste 0 980.8 -1.5 95
2019-01-22 04:00:00 -2.5 3 Norte 9 Norte 0 981.2 -1.3 96
2019-01-22 03:00:00 -2.2 3 Norte 9 Nordeste 0 981.7 -0.9 96
2019-01-22 02:00:00 -1.7 4 Nordeste 9 Nordeste 0 982.3 -0.2 95
2019-01-22 01:00:00 -1.1 3 Norte 7 Nordeste 0 982.5 0.1 95
2019-01-22 00:00:00 -0.5 5 Nordeste 8 Norte 0 982.6 0.5 94
2019-01-21 23:00:00 0.1 4 Norte 7 Nordeste 0 982.5 0.5 93
2019-01-21 22:00:00 0.8 3 Nordeste 7 Norte 0 982.4 0.7 92
2019-01-21 21:00:00 2.1 4 Nordeste 6 Nordeste 0 982.1 0.6 89
2019-01-21 20:00:00 3.6 4 Nordeste 7 Este 0 982 0.5 84
2019-01-21 19:00:00 4.5 2 Sur 10 Noroeste 0 981.7 0.2 80
2019-01-21 18:00:00 5.8 6 Oeste 15 Oeste 0 981.5 0.1 73
2019-01-21 17:00:00 7.3 10 Oeste 24 Noroeste 0 981.5 -0.2 67
2019-01-21 16:00:00 7.5 13 Oeste 27 Oeste 0 981.5 -0.9 66
2019-01-21 15:00:00 8.8 12 Oeste 23 Noroeste 0 981.4 -1.6 63
2019-01-21 14:00:00 8.3 4 Nordeste 11 Este 0 981.7 -1.1 67
2019-01-21 13:00:00 6.7 6 Este 13 Nordeste 0 982.4 -0.3 74
2019-01-21 12:00:00 5.3 8 Nordeste 15 Nordeste 0 983 0.7 83
2019-01-21 11:00:00 1.3 7 Nordeste 12 Nordeste 0 982.8 1 93
2019-01-21 10:00:00 0.2 3 Nordeste 7 Nordeste 0 982.7 1.2 98
2019-01-21 09:00:00 -0.5 4 Nordeste 10 Nordeste 0 982.3 1.3 98
2019-01-21 08:00:00 -1 5 Nordeste 9 Nordeste 0 981.8 1 98
2019-01-21 07:00:00 -0.7 5 Nordeste 8 Nordeste 0 981.5 0.6 98
2019-01-21 06:00:00 0 4 Nordeste 10 Nordeste 0 981 0.2 98
2019-01-21 05:00:00 0.6 4 Nordeste 7 Nordeste 0 980.8 0.1 97
2019-01-21 04:00:00 -0.1 0 Calma 9 Nordeste 0 980.9 0.1 97
2019-01-21 03:00:00 -0.1 5 Nordeste 8 Norte 0 980.8 0.4 97
2019-01-21 02:00:00 0.6 2 Nordeste 8 Este 0 980.7 0.7 97
2019-01-21 01:00:00 1.3 3 Este 10 Nordeste 0 980.8 1.5 96
2019-01-21 00:00:00 2 2 Este 4 Nordeste 0 980.4 1.5 95
2019-01-20 23:00:00 3 3 Norte 5 Norte 0 980 1.8 95
2019-01-20 22:00:00 2.9 0 Calma 10 Oeste 0 979.3 1.9 93
2019-01-20 21:00:00 4 4 Este 12 Este 0 978.9 2.4 90
2019-01-20 20:00:00 4.6 5 Nordeste 11 Oeste 0 978.2 2.2 87
2019-01-20 19:00:00 5.6 4 Noroeste 18 Oeste 0 977.4 1.8 83
2019-01-20 18:00:00 7.1 4 Oeste 14 Oeste 0 976.5 1.2 79
2019-01-20 17:00:00 9.4 3 Oeste 5 Oeste 0 976 0.7 80
2019-01-20 16:00:00 8.1 2 Sudoeste 11 Sudeste 0 975.6 -0.2 84
2019-01-20 15:00:00 8 4 Noroeste 9 Noroeste 0 975.3 -1 81
2019-01-20 14:00:00 7.2 3 Norte 9 Nordeste 0 975.3 -0.7 88
2019-01-20 13:00:00 6.3 2 Sudoeste 5 Sur 0 975.8 0.5 90
2019-01-20 12:00:00 5 2 Nordeste 7 Nordeste 0.4 976.3 1.4 92
2019-01-20 11:00:00 3.9 5 Nordeste 9 Norte 1.6 976 1.5 95
2019-01-20 10:00:00 3.3 4 Nordeste 8 Norte 1.6 975.3 1 95
2019-01-20 09:00:00 2.9 3 Nordeste 5 Nordeste 0.8 974.9 0.5 95
2019-01-20 08:00:00 2.6 2 Nordeste 4 Nordeste 0.6 974.5 -0.4 95
2019-01-20 07:00:00 2.4 0 Calma 5 Norte 1.2 974.3 -1.2 95
2019-01-20 06:00:00 2.3 0 Calma 4 Oeste 0.4 974.4 -1.6 94
2019-01-20 05:00:00 2.1 2 Nordeste 5 Nordeste 0.6 974.9 -1.3 94
2019-01-20 04:00:00 2 3 Nordeste 6 Este 0.6 975.5 -1.3 92
2019-01-20 03:00:00 1.9 0 Calma 6 Nordeste 0 976 -1.4 89
2019-01-20 02:00:00 1.7 3 Nordeste 9 Nordeste 0 976.2 -1.4 87
2019-01-20 01:00:00 1.8 6 Nordeste 11 Nordeste 0 976.8 -0.8 84
2019-01-20 00:00:00 1.8 4 Nordeste 8 Norte 0 977.4 -0.4 84
2019-01-19 23:00:00 2 2 Nordeste 9 Nordeste 0 977.6 -0.4 83
2019-01-19 22:00:00 2 3 Noroeste 6 Noroeste 0 977.6 -0.5 83
2019-01-19 21:00:00 2.4 3 Noroeste 8 Oeste 0 977.8 -0.3 81
2019-01-19 20:00:00 3.5 5 Nordeste 8 Nordeste 0 978 -0.2 77
2019-01-19 19:00:00 4.1 2 Este 16 Noroeste 0 978.1 -0.3 75
2019-01-19 18:00:00 5.5 6 Oeste 12 Oeste 0 978.1 -0.9 69
2019-01-19 17:00:00 8 6 Oeste 17 Oeste 0 978.2 -1.6 59
2019-01-19 16:00:00 9.2 0 Calma 7 Noroeste 0 978.4 -2.6 58
2019-01-19 15:00:00 8.8 4 Norte 8 Nordeste 0 979 -3 60
2019-01-19 14:00:00 8.1 2 Sudoeste 6 Este 0 979.8 -2.7 62
2019-01-19 13:00:00 4.7 3 Nordeste 8 Oeste 0 981 -1.2 71
2019-01-19 12:00:00 1.1 2 Oeste 8 Nordeste 0 982 0.2 96
2019-01-19 11:00:00 -1.2 6 Norte 9 Norte 0 982.5 1 97
2019-01-19 10:00:00 -1.6 4 Nordeste 9 Nordeste 0 982.2 1.1 97
2019-01-19 09:00:00 -2.1 3 Noroeste 8 Este 0 981.8 0.9 96
2019-01-19 08:00:00 -2.7 3 Norte 9 Nordeste 0 981.5 0.5 95
2019-01-19 07:00:00 -2.3 0 Calma 8 Nordeste 0 981.1 -0.2 95
2019-01-19 06:00:00 -2.2 4 Nordeste 6 Nordeste 0 980.9 -0.5 95
2019-01-19 05:00:00 -1.6 5 Nordeste 8 Norte 0 981 -0.6 95
2019-01-19 04:00:00 -1.4 0 Calma 4 Oeste 0 981.3 -0.6 94
2019-01-19 03:00:00 -0.9 3 Norte 7 Nordeste 0 981.4 -0.7 93
2019-01-19 02:00:00 0 5 Nordeste 7 Nordeste 0 981.6 -0.3 92
2019-01-19 01:00:00 1 4 Nordeste 7 Noroeste 0 981.9 0.3 90
2019-01-19 00:00:00 1.8 3 Norte 8 Noroeste 0 982.1 0.3 87